createdAt,value
2022-11-17T00:01:11.393Z,9.51
2022-11-17T00:03:44.353Z,9.60
2022-11-17T00:06:16.131Z,9.50
2022-11-17T00:08:53.889Z,9.64
2022-11-17T00:11:23.440Z,9.69
2022-11-17T00:14:13.236Z,9.71
2022-11-17T00:16:43.135Z,9.80
2022-11-17T00:19:32.532Z,9.71
2022-11-17T00:22:01.902Z,9.80
2022-11-17T00:24:31.226Z,9.78
2022-11-17T00:27:02.490Z,9.78
2022-11-17T00:29:31.929Z,9.83
2022-11-17T00:32:19.565Z,9.81
2022-11-17T00:34:49.171Z,9.82
2022-11-17T00:37:18.483Z,9.81
2022-11-17T00:39:46.884Z,9.88
2022-11-17T00:42:16.910Z,9.82
2022-11-17T00:44:48.793Z,10.00
2022-11-17T00:47:20.637Z,10.02
2022-11-17T00:49:53.910Z,10.01
2022-11-17T00:52:27.174Z,10.08
2022-11-17T00:55:00.573Z,10.06
2022-11-17T00:57:34.070Z,10.04
2022-11-17T01:00:03.438Z,10.03
2022-11-17T01:02:36.563Z,10.03
2022-11-17T01:05:07.802Z,9.96
2022-11-17T01:07:38.729Z,10.09
2022-11-17T01:10:10.233Z,10.11
2022-11-17T01:12:48.473Z,10.11
2022-11-17T01:15:17.062Z,10.11
2022-11-17T01:17:46.367Z,10.11
2022-11-17T01:20:15.232Z,10.12
2022-11-17T01:22:44.348Z,10.13
2022-11-17T01:25:13.920Z,10.07
2022-11-17T01:33:16.126Z,9.96
2022-11-17T01:35:44.292Z,9.98
2022-11-17T01:38:12.437Z,9.99
2022-11-17T01:40:42.449Z,10.06
2022-11-17T01:43:24.200Z,9.96
2022-11-17T01:45:54.593Z,9.97
2022-11-17T01:48:34.139Z,10.03
2022-11-17T01:51:04.795Z,10.09
2022-11-17T01:53:35.887Z,10.10
2022-11-17T01:56:11.937Z,10.13
2022-11-17T01:58:55.228Z,10.21
2022-11-17T02:01:24.375Z,10.11
2022-11-17T02:03:56.391Z,10.12
2022-11-17T02:06:37.500Z,10.09
2022-11-17T02:09:11.722Z,10.14
2022-11-17T02:11:49.411Z,10.04
2022-11-17T02:14:18.758Z,10.02
2022-11-17T02:16:48.628Z,10.15
2022-11-17T02:19:18.885Z,10.15
2022-11-17T02:25:09.892Z,10.04
2022-11-17T02:28:19.143Z,10.12
2022-11-17T02:31:20.890Z,10.09
2022-11-17T02:34:13.297Z,10.10
2022-11-17T02:37:22.916Z,10.07
2022-11-17T02:40:22.325Z,9.97
2022-11-17T02:43:24.803Z,9.84
2022-11-17T02:46:09.933Z,9.83
2022-11-17T02:48:45.801Z,9.88
2022-11-17T02:51:30.434Z,9.82
2022-11-17T02:54:07.971Z,9.91
2022-11-17T02:56:45.944Z,9.82
2022-11-17T02:59:20.494Z,9.85
2022-11-17T03:02:27.574Z,9.92
2022-11-17T03:05:50.395Z,9.91
2022-11-17T03:08:56.934Z,9.82
2022-11-17T03:11:46.531Z,9.85
2022-11-17T03:14:33.950Z,9.96
2022-11-17T03:17:13.756Z,9.83
2022-11-17T03:19:59.488Z,9.85
2022-11-17T03:42:53.570Z,9.37
2022-11-17T03:45:28.886Z,9.49
2022-11-17T03:48:34.105Z,9.50
2022-11-17T03:51:19.152Z,9.46
2022-11-17T03:53:55.189Z,9.56
2022-11-17T03:57:05.220Z,9.62
2022-11-17T04:00:04.117Z,9.72
2022-11-17T04:02:42.492Z,9.69
2022-11-17T04:05:17.816Z,9.67
2022-11-17T04:07:48.566Z,9.69
2022-11-17T04:10:21.695Z,9.68
2022-11-17T04:13:11.878Z,9.69
2022-11-17T04:15:57.353Z,9.74
2022-11-17T04:18:27.447Z,9.63
2022-11-17T04:20:57.654Z,9.68
2022-11-17T04:23:26.368Z,9.66
2022-11-17T04:26:18.100Z,9.44
2022-11-17T04:28:49.606Z,9.12
2022-11-17T04:31:29.048Z,9.22
2022-11-17T04:34:03.493Z,9.12
2022-11-17T04:36:48.439Z,8.97
2022-11-17T04:39:20.065Z,8.70
2022-11-17T04:41:54.654Z,8.69
2022-11-17T04:44:28.876Z,8.62
2022-11-17T04:46:58.280Z,8.64
2022-11-17T04:49:27.469Z,8.64
2022-11-17T04:51:55.514Z,8.71
2022-11-17T04:54:25.603Z,8.61
2022-11-17T04:56:55.555Z,8.62
2022-11-17T04:59:24.661Z,8.59
2022-11-17T05:01:56.457Z,8.60
2022-11-17T05:04:55.107Z,8.48
2022-11-17T05:07:25.528Z,8.49
2022-11-17T05:09:59.900Z,8.30
2022-11-17T05:13:06.924Z,8.41
2022-11-17T05:16:06.364Z,8.31
2022-11-17T05:18:51.120Z,8.30
2022-11-17T05:21:35.134Z,8.19
2022-11-17T05:24:10.733Z,8.11
2022-11-17T05:29:31.438Z,8.14
2022-11-17T05:32:07.925Z,8.10
2022-11-17T05:34:45.465Z,8.07
2022-11-17T05:37:15.729Z,7.99
2022-11-17T05:39:46.566Z,8.09
2022-11-17T05:42:14.316Z,8.00
2022-11-17T05:44:47.640Z,7.96
2022-11-17T05:47:18.890Z,7.97
2022-11-17T05:49:48.253Z,8.07
2022-11-17T05:52:18.174Z,8.06
2022-11-17T05:54:47.292Z,8.02
2022-11-17T05:57:26.882Z,8.16
2022-11-17T05:59:59.801Z,8.09
2022-11-17T06:02:36.994Z,8.09
2022-11-17T06:05:08.618Z,8.17
2022-11-17T06:07:39.595Z,8.22
2022-11-17T06:10:12.397Z,8.39
2022-11-17T06:12:45.203Z,8.32
2022-11-17T06:15:15.281Z,8.35
2022-11-17T06:17:55.279Z,8.42
2022-11-17T06:23:34.617Z,8.61
2022-11-17T06:26:09.087Z,8.59
2022-11-17T06:28:52.317Z,8.62
2022-11-17T06:31:21.632Z,8.61
2022-11-17T06:33:51.458Z,8.61
2022-11-17T06:36:21.234Z,8.66
2022-11-17T06:38:50.285Z,8.59
2022-11-17T06:41:20.445Z,8.51
2022-11-17T06:43:49.959Z,8.47
2022-11-17T06:46:19.496Z,8.62
2022-11-17T06:48:48.800Z,8.46
2022-11-17T06:51:17.343Z,8.60
2022-11-17T06:53:47.514Z,8.52
2022-11-17T06:56:21.920Z,8.48
2022-11-17T06:58:50.277Z,8.51
2022-11-17T07:01:22.355Z,8.27
2022-11-17T07:03:51.820Z,8.32
2022-11-17T07:06:23.060Z,8.54
2022-11-17T07:08:53.029Z,8.66
2022-11-17T07:11:24.289Z,8.66
2022-11-17T07:13:53.333Z,8.61
2022-11-17T07:16:24.217Z,8.77
2022-11-17T07:18:53.559Z,8.90
2022-11-17T07:21:23.156Z,8.80
2022-11-17T07:23:52.831Z,8.83
2022-11-17T07:26:21.417Z,8.78
2022-11-17T07:28:50.391Z,8.72
2022-11-17T07:31:18.285Z,8.76
2022-11-17T07:33:47.744Z,8.58
2022-11-17T07:36:16.992Z,8.51
2022-11-17T07:38:47.971Z,8.53
2022-11-17T07:41:17.358Z,8.49
2022-11-17T07:43:46.274Z,8.62
2022-11-17T07:46:18.184Z,8.29
2022-11-17T07:48:57.952Z,8.33
2022-11-17T07:51:27.555Z,8.35
2022-11-17T07:53:58.943Z,8.39
2022-11-17T07:56:32.382Z,8.23
2022-11-17T07:59:01.654Z,8.24
2022-11-17T08:01:33.717Z,8.19
2022-11-17T08:04:03.218Z,8.12
2022-11-17T08:06:33.551Z,8.18
2022-11-17T08:09:02.550Z,8.17
2022-11-17T08:11:34.332Z,8.30
2022-11-17T08:14:07.626Z,8.43
2022-11-17T08:16:39.300Z,8.36
2022-11-17T08:19:13.327Z,8.34
2022-11-17T08:21:43.052Z,8.36
2022-11-17T08:24:12.858Z,8.35
2022-11-17T08:26:52.384Z,8.52
2022-11-17T08:29:21.997Z,8.52
2022-11-17T08:31:55.461Z,8.44
2022-11-17T08:34:27.482Z,8.36
2022-11-17T08:37:06.602Z,8.38
2022-11-17T08:39:43.027Z,8.24
2022-11-17T08:42:14.494Z,8.25
2022-11-17T08:44:47.190Z,8.49
2022-11-17T08:47:19.300Z,8.42
2022-11-17T08:52:36.625Z,8.55
2022-11-17T08:55:07.230Z,8.71
2022-11-17T08:57:39.147Z,8.56
2022-11-17T09:00:12.228Z,8.49
2022-11-17T09:02:42.865Z,8.55
2022-11-17T09:05:13.622Z,8.75
2022-11-17T09:07:43.458Z,8.56
2022-11-17T09:10:13.075Z,8.66
2022-11-17T09:12:41.516Z,8.53
2022-11-17T09:15:11.149Z,8.48
2022-11-17T09:17:40.695Z,8.70
2022-11-17T09:20:10.635Z,8.70
2022-11-17T09:22:53.397Z,8.48
2022-11-17T09:25:21.374Z,8.43
2022-11-17T09:27:51.205Z,8.19
2022-11-17T09:30:23.691Z,8.42
2022-11-17T09:32:53.135Z,8.30
2022-11-17T09:35:22.996Z,8.40
2022-11-17T09:37:52.319Z,8.41
2022-11-17T09:40:21.579Z,8.30
2022-11-17T09:42:50.935Z,8.21
2022-11-17T09:45:30.626Z,8.31
2022-11-17T09:48:39.555Z,8.37
2022-11-17T09:51:03.118Z,8.49
2022-11-17T09:53:51.942Z,8.51
2022-11-17T09:56:22.249Z,8.42
2022-11-17T09:59:04.675Z,8.44
2022-11-17T10:01:33.448Z,8.48
2022-11-17T10:04:02.349Z,8.37
2022-11-17T10:06:32.218Z,8.32
2022-11-17T10:09:12.983Z,8.21
2022-11-17T10:11:45.250Z,8.33
2022-11-17T10:14:21.480Z,8.03
2022-11-17T10:16:53.094Z,8.09
2022-11-17T10:19:26.051Z,8.19
2022-11-17T10:22:06.133Z,8.21
2022-11-17T10:24:58.107Z,8.15
2022-11-17T10:27:34.719Z,8.27
2022-11-17T10:30:20.497Z,7.98
2022-11-17T10:32:52.354Z,8.03
2022-11-17T10:35:55.155Z,8.15
2022-11-17T10:38:33.921Z,8.25
2022-11-17T10:41:03.829Z,8.22
2022-11-17T10:43:35.664Z,8.18
2022-11-17T10:46:16.709Z,8.20
2022-11-17T10:49:03.954Z,8.28
2022-11-17T10:51:35.142Z,8.19
2022-11-17T10:54:07.302Z,8.23
2022-11-17T10:56:44.425Z,8.23
2022-11-17T10:59:32.099Z,8.34
2022-11-17T11:02:31.290Z,8.39
2022-11-17T11:05:23.199Z,8.51
2022-11-17T11:08:19.077Z,8.44
2022-11-17T11:10:51.511Z,8.62
2022-11-17T11:13:54.795Z,8.36
2022-11-17T11:16:41.370Z,8.47
2022-11-17T11:19:17.340Z,8.48
2022-11-17T11:22:08.854Z,8.63
2022-11-17T11:25:17.403Z,8.53
2022-11-17T11:28:16.347Z,8.62
2022-11-17T11:31:05.009Z,8.59
2022-11-17T11:33:41.881Z,8.57
2022-11-17T11:36:37.813Z,8.54
2022-11-17T11:39:48.903Z,8.48
2022-11-17T11:42:37.062Z,8.52
2022-11-17T11:45:39.189Z,8.59
2022-11-17T11:48:35.135Z,8.39
2022-11-17T11:51:20.305Z,8.24
2022-11-17T11:53:55.704Z,8.29
2022-11-17T11:56:36.446Z,8.43
2022-11-17T11:59:48.511Z,8.51
2022-11-17T12:03:00.169Z,8.61
2022-11-17T12:06:39.596Z,8.74
2022-11-17T12:09:38.995Z,8.73
2022-11-17T12:12:10.615Z,8.91
2022-11-17T12:15:08.236Z,8.86
2022-11-17T12:17:40.160Z,8.92
2022-11-17T13:07:32.881Z,9.96
2022-11-17T13:10:06.108Z,10.81
2022-11-17T13:12:37.250Z,10.76
2022-11-17T13:15:07.623Z,9.85
2022-11-17T13:17:44.487Z,9.91
2022-11-17T13:20:25.017Z,10.47
2022-11-17T13:23:27.476Z,10.36
2022-11-17T13:26:26.232Z,10.55
2022-11-17T13:29:20.711Z,10.54
2022-11-17T13:32:15.928Z,10.63
2022-11-17T13:35:02.512Z,10.58
2022-11-17T13:37:51.401Z,10.44
2022-11-17T13:40:24.866Z,10.00
2022-11-17T13:42:54.568Z,9.97
2022-11-17T13:45:27.255Z,10.06
2022-11-17T13:47:58.996Z,9.88
2022-11-17T13:50:31.545Z,9.94
2022-11-17T13:53:12.334Z,9.90
2022-11-17T13:55:48.204Z,9.69
2022-11-17T13:58:51.223Z,9.76
2022-11-17T14:01:37.013Z,9.82
2022-11-17T14:04:19.781Z,9.80
2022-11-17T14:07:13.217Z,9.85
2022-11-17T14:09:41.945Z,9.84
2022-11-17T14:12:11.654Z,9.85
2022-11-17T14:14:44.808Z,9.98
2022-11-17T14:17:24.890Z,9.83
2022-11-17T14:19:54.008Z,9.47
2022-11-17T14:22:31.953Z,9.49
2022-11-17T14:25:01.759Z,9.52
2022-11-17T14:27:33.370Z,9.53
2022-11-17T14:30:02.075Z,9.44
2022-11-17T14:32:34.907Z,9.41
2022-11-17T14:35:07.410Z,9.56
2022-11-17T14:37:37.706Z,9.58
2022-11-17T14:40:18.375Z,9.54
2022-11-17T14:42:47.043Z,9.50
2022-11-17T14:45:17.096Z,9.44
2022-11-17T14:47:50.863Z,9.53
2022-11-17T14:50:32.342Z,9.45
2022-11-17T14:53:03.592Z,9.27
2022-11-17T14:55:40.057Z,9.35
2022-11-17T14:58:07.950Z,9.44
2022-11-17T15:00:38.288Z,9.29
2022-11-17T15:03:11.559Z,9.37
2022-11-17T15:05:50.645Z,9.36
2022-11-17T15:08:21.330Z,9.28
2022-11-17T15:10:51.553Z,9.39
2022-11-17T15:13:20.966Z,9.43
2022-11-17T15:16:07.411Z,9.45
2022-11-17T15:18:41.320Z,9.42
2022-11-17T15:21:15.542Z,9.26
2022-11-17T15:23:53.945Z,9.16
2022-11-17T15:26:24.136Z,9.09
2022-11-17T15:28:53.001Z,9.13
2022-11-17T15:31:26.155Z,9.24
2022-11-17T15:33:56.962Z,9.16
2022-11-17T15:36:33.308Z,9.14
2022-11-17T15:39:07.356Z,9.10
2022-11-17T15:41:41.588Z,9.03
2022-11-17T15:44:12.912Z,8.98
2022-11-17T15:46:48.820Z,8.87
2022-11-17T15:49:26.481Z,9.00
2022-11-17T15:51:55.899Z,9.08
2022-11-17T15:54:25.530Z,8.96
2022-11-17T15:56:58.315Z,8.95
2022-11-17T15:59:30.546Z,9.10
2022-11-17T16:02:15.278Z,8.86
2022-11-17T16:04:47.701Z,9.07
2022-11-17T16:07:38.545Z,8.95
2022-11-17T16:10:22.301Z,8.90
2022-11-17T16:12:51.610Z,8.88
2022-11-17T16:15:33.125Z,8.81
2022-11-17T16:18:01.936Z,8.86
2022-11-17T16:23:29.108Z,8.82
2022-11-17T16:26:02.726Z,8.68
2022-11-17T16:28:31.820Z,8.80
2022-11-17T16:31:17.983Z,8.81
2022-11-17T16:33:49.493Z,8.88
2022-11-17T16:36:21.857Z,8.95
2022-11-17T16:39:01.235Z,8.90
2022-11-17T16:41:34.126Z,8.80
2022-11-17T16:46:51.073Z,8.77
2022-11-17T16:49:27.846Z,8.84
2022-11-17T16:51:59.583Z,8.73
2022-11-17T16:54:27.972Z,8.77
2022-11-17T16:59:47.571Z,8.71
2022-11-17T17:02:16.765Z,8.76
2022-11-17T17:04:47.216Z,8.78
2022-11-17T17:07:16.953Z,8.87
2022-11-17T17:09:46.206Z,8.81
2022-11-17T17:12:16.474Z,8.68
2022-11-17T17:14:46.344Z,8.76
2022-11-17T17:17:18.726Z,8.80
2022-11-17T17:19:52.475Z,8.87
2022-11-17T17:22:22.297Z,8.93
2022-11-17T17:24:52.055Z,8.90
2022-11-17T17:27:21.228Z,8.73
2022-11-17T17:29:54.842Z,8.82
2022-11-17T17:32:23.017Z,8.81
2022-11-17T17:34:54.631Z,8.81
2022-11-17T17:37:24.017Z,8.85
2022-11-17T17:39:54.725Z,8.82
2022-11-17T17:42:23.971Z,8.79
2022-11-17T17:44:53.822Z,8.76
2022-11-17T17:47:23.630Z,8.76
2022-11-17T17:49:53.889Z,8.82
2022-11-17T17:52:23.020Z,8.79
2022-11-17T17:54:54.472Z,8.73
2022-11-17T17:57:23.908Z,8.71
2022-11-17T17:59:53.633Z,8.75
2022-11-17T18:02:23.559Z,8.73
2022-11-17T18:04:59.742Z,8.73
2022-11-17T18:10:17.909Z,8.71
2022-11-17T18:12:47.349Z,8.80
2022-11-17T18:15:19.100Z,8.75
2022-11-17T18:17:48.275Z,8.76
2022-11-17T18:20:22.523Z,8.68
2022-11-17T18:22:51.839Z,8.53
2022-11-17T18:25:19.880Z,8.49
2022-11-17T18:27:49.255Z,8.51
2022-11-17T18:30:18.950Z,8.53
2022-11-17T18:32:48.005Z,8.42
2022-11-17T18:35:17.706Z,8.40
2022-11-17T18:37:46.877Z,8.33
2022-11-17T18:40:16.794Z,8.12
2022-11-17T18:42:46.483Z,8.26
2022-11-17T18:45:15.694Z,8.05
2022-11-17T18:47:45.094Z,8.14
2022-11-17T18:50:16.399Z,8.11
2022-11-17T18:52:45.955Z,8.01
2022-11-17T18:55:15.204Z,8.18
2022-11-17T18:57:45.143Z,8.13
2022-11-17T19:00:16.316Z,8.13
2022-11-17T19:02:46.777Z,7.99
2022-11-17T19:05:15.910Z,8.05
2022-11-17T19:07:45.699Z,8.02
2022-11-17T19:10:16.377Z,7.83
2022-11-17T19:12:44.914Z,7.65
2022-11-17T19:15:13.938Z,7.66
2022-11-17T19:17:44.832Z,7.57
2022-11-17T19:20:27.762Z,7.60
2022-11-17T19:22:58.705Z,7.51
2022-11-17T19:25:28.890Z,7.46
2022-11-17T19:28:02.289Z,7.40
2022-11-17T19:30:32.319Z,7.53
2022-11-17T19:33:04.501Z,7.43
2022-11-17T19:35:37.895Z,7.27
2022-11-17T19:38:07.646Z,7.32
2022-11-17T19:40:37.256Z,7.33
2022-11-17T19:43:06.119Z,7.32
2022-11-17T19:45:35.345Z,7.31
2022-11-17T19:48:04.849Z,7.01
2022-11-17T19:50:34.091Z,7.18
2022-11-17T19:53:04.395Z,7.09
2022-11-17T19:55:34.754Z,7.08
2022-11-17T19:58:08.278Z,6.78
2022-11-17T20:00:37.282Z,6.89
2022-11-17T20:03:09.229Z,6.89
2022-11-17T20:05:39.915Z,6.92
2022-11-17T20:08:11.176Z,6.70
2022-11-17T20:10:40.379Z,6.75
2022-11-17T20:13:08.834Z,6.40
2022-11-17T20:15:36.850Z,6.62
2022-11-17T20:18:06.996Z,6.59
2022-11-17T20:20:36.938Z,6.61
2022-11-17T20:23:08.911Z,6.55
2022-11-17T20:25:39.084Z,6.52
2022-11-17T20:28:08.958Z,6.38
2022-11-17T20:30:42.951Z,6.38
2022-11-17T20:33:13.284Z,6.32
2022-11-17T20:35:43.325Z,6.42
2022-11-17T20:38:15.653Z,6.27
2022-11-17T20:40:43.820Z,6.27
2022-11-17T20:43:12.682Z,6.19
2022-11-17T20:45:40.820Z,6.18
2022-11-17T20:48:09.734Z,6.20
2022-11-17T20:50:38.726Z,6.06
2022-11-17T20:53:06.816Z,5.99
2022-11-17T20:55:37.319Z,5.86
2022-11-17T20:58:08.417Z,6.08
2022-11-17T21:00:37.361Z,5.91
2022-11-17T21:03:08.486Z,5.85
2022-11-17T21:05:40.258Z,5.87
2022-11-17T21:08:13.259Z,5.77
2022-11-17T21:10:42.327Z,5.88
2022-11-17T21:13:13.824Z,5.78
2022-11-17T21:15:42.062Z,5.84
2022-11-17T21:18:40.612Z,5.39
2022-11-17T21:21:09.289Z,5.35
2022-11-17T21:23:39.442Z,5.59
2022-11-17T21:26:18.594Z,5.36
2022-11-17T21:28:49.565Z,5.46
2022-11-17T21:31:29.409Z,5.38
2022-11-17T21:34:07.240Z,5.31
2022-11-17T21:36:36.209Z,5.35
2022-11-17T21:39:07.431Z,5.30
2022-11-17T21:41:35.927Z,5.27
2022-11-17T21:44:05.362Z,5.25
2022-11-17T21:46:36.686Z,5.28
2022-11-17T21:49:07.417Z,5.13
2022-11-17T21:51:39.354Z,5.23
2022-11-17T21:54:10.165Z,5.27
2022-11-17T21:56:43.961Z,5.18
2022-11-17T21:59:14.215Z,4.99
2022-11-17T22:01:45.334Z,5.16
2022-11-17T22:04:16.047Z,5.03
2022-11-17T22:06:45.782Z,5.01
2022-11-17T22:09:17.031Z,5.20
2022-11-17T22:11:46.461Z,5.35
2022-11-17T22:14:18.249Z,5.24
2022-11-17T22:16:53.376Z,5.14
2022-11-17T22:19:27.182Z,5.12
2022-11-17T22:21:56.424Z,5.29
2022-11-17T22:24:24.937Z,5.27
2022-11-17T22:26:53.676Z,5.32
2022-11-17T22:29:22.918Z,5.14
2022-11-17T22:31:53.294Z,5.13
2022-11-17T22:34:21.990Z,5.19
2022-11-17T22:36:53.326Z,5.35
2022-11-17T22:39:22.662Z,5.36
2022-11-17T22:41:52.235Z,5.26
2022-11-17T22:44:21.795Z,5.29
2022-11-17T22:46:53.432Z,5.27
2022-11-17T22:49:21.969Z,5.43
2022-11-17T22:52:10.480Z,5.35
2022-11-17T22:54:39.834Z,5.25
2022-11-17T22:57:08.850Z,5.27
2022-11-17T22:59:37.933Z,5.11
2022-11-17T23:02:06.959Z,5.20
2022-11-17T23:04:36.824Z,5.11
2022-11-17T23:07:07.536Z,5.23
2022-11-17T23:09:37.823Z,5.17
2022-11-17T23:12:08.429Z,5.26
2022-11-17T23:14:37.532Z,5.17
2022-11-17T23:17:07.073Z,5.23
2022-11-17T23:19:35.885Z,5.24
2022-11-17T23:22:04.658Z,5.00
2022-11-17T23:24:33.752Z,4.91
2022-11-17T23:27:03.021Z,4.82
2022-11-17T23:29:34.416Z,4.96
2022-11-17T23:32:03.091Z,5.10
2022-11-17T23:34:33.373Z,5.15
2022-11-17T23:37:03.961Z,5.09
2022-11-17T23:39:33.628Z,5.11
2022-11-17T23:42:01.868Z,5.17
2022-11-17T23:44:33.311Z,4.99
2022-11-17T23:47:01.798Z,5.14
2022-11-17T23:49:31.673Z,5.13
2022-11-17T23:52:01.090Z,5.06
2022-11-17T23:54:29.985Z,4.92
2022-11-17T23:57:03.117Z,4.88
2022-11-17T23:59:32.480Z,5.02
